Terminal Aerodrome Forecast
Issued by NWS

Home | Current Version | Previous Version | Text Only | Print | Product List | Glossary On
Versions: 1 2 3 4 5 6 7 8 9 10 11 12 13 14 15 16 17
000
FTUS43 KMQT 271100
TAFSAW
TAF
KSAW 271137Z 2712/2812 32009KT P6SM SCT060
     FM271500 33012G17KT P6SM BKN035
     FM272300 27003KT P6SM SCT250
     FM280700 20003KT P6SM BKN100
      AMD LTD TO CLD VIS AND WIND 2803/2811=

USA.gov is the U.S. government's official web portal to all federal, state and local government web resources and services.